createdAt,value
2018-09-23T00:00:09.091Z,22.15
2018-09-23T00:02:36.626Z,22.15
2018-09-23T00:05:04.205Z,22.11
2018-09-23T00:07:31.632Z,22.06
2018-09-23T00:09:59.100Z,21.98
2018-09-23T00:12:26.761Z,21.92
2018-09-23T00:14:54.212Z,21.87
2018-09-23T00:17:21.656Z,21.86
2018-09-23T00:19:49.137Z,21.88
2018-09-23T00:22:16.641Z,21.89
2018-09-23T00:24:44.084Z,21.93
2018-09-23T00:27:11.543Z,21.98
2018-09-23T00:29:38.959Z,22.06
2018-09-23T00:32:06.401Z,22.10
2018-09-23T00:34:33.808Z,22.19
2018-09-23T00:37:01.271Z,22.26
2018-09-23T00:39:28.672Z,22.28
2018-09-23T00:41:56.096Z,22.30
2018-09-23T00:44:23.500Z,22.35
2018-09-23T00:46:50.934Z,22.36
2018-09-23T00:49:18.464Z,22.38
2018-09-23T00:51:45.887Z,22.40
2018-09-23T00:54:13.315Z,22.40
2018-09-23T00:56:40.720Z,22.38
2018-09-23T00:59:08.154Z,22.38
2018-09-23T01:01:35.610Z,22.37
2018-09-23T01:04:03.131Z,22.37
2018-09-23T01:06:30.564Z,22.34
2018-09-23T01:08:58.057Z,22.36
2018-09-23T01:11:25.533Z,22.35
2018-09-23T01:13:53.034Z,22.30
2018-09-23T01:16:20.541Z,22.32
2018-09-23T01:18:48.007Z,22.32
2018-09-23T01:21:15.562Z,22.32
2018-09-23T01:23:42.999Z,22.31
2018-09-23T01:26:11.306Z,22.28
2018-09-23T01:28:38.741Z,22.29
2018-09-23T01:31:06.175Z,22.33
2018-09-23T01:33:33.649Z,22.32
2018-09-23T01:36:01.045Z,22.30
2018-09-23T01:38:28.652Z,22.30
2018-09-23T01:40:56.079Z,22.27
2018-09-23T01:43:23.654Z,22.19
2018-09-23T01:45:51.442Z,22.13
2018-09-23T01:48:18.881Z,22.08
2018-09-23T01:50:46.269Z,22.03
2018-09-23T01:53:13.760Z,22.00
2018-09-23T01:55:41.211Z,21.96
2018-09-23T01:58:08.857Z,21.91
2018-09-23T02:00:36.264Z,21.88
2018-09-23T02:03:03.858Z,21.87
2018-09-23T02:05:32.363Z,21.87
2018-09-23T02:07:59.828Z,21.81
2018-09-23T02:10:27.835Z,21.80
2018-09-23T02:12:55.323Z,21.75
2018-09-23T02:15:22.793Z,21.73
2018-09-23T02:17:50.221Z,21.71
2018-09-23T02:20:17.648Z,21.68
2018-09-23T02:22:45.079Z,21.64
2018-09-23T02:25:12.536Z,21.62
2018-09-23T02:27:40.470Z,21.65
2018-09-23T02:30:07.868Z,21.66
2018-09-23T02:32:35.538Z,21.70
2018-09-23T02:35:02.998Z,21.80
2018-09-23T02:37:30.422Z,21.88
2018-09-23T02:39:57.859Z,21.92
2018-09-23T02:42:25.266Z,21.84
2018-09-23T02:44:52.702Z,21.72
2018-09-23T02:47:20.105Z,21.59
2018-09-23T02:49:47.514Z,21.52
2018-09-23T02:52:14.947Z,21.55
2018-09-23T02:54:42.379Z,21.49
2018-09-23T02:57:09.825Z,21.53
2018-09-23T02:59:37.271Z,21.56
2018-09-23T03:02:04.693Z,21.54
2018-09-23T03:04:32.091Z,21.57
2018-09-23T03:06:59.547Z,21.61
2018-09-23T03:09:27.024Z,21.66
2018-09-23T03:11:54.528Z,21.71
2018-09-23T03:14:21.925Z,21.64
2018-09-23T03:16:49.334Z,21.61
2018-09-23T03:19:16.779Z,21.59
2018-09-23T03:21:44.209Z,21.55
2018-09-23T03:24:11.685Z,21.53
2018-09-23T03:26:39.129Z,21.43
2018-09-23T03:29:06.588Z,21.52
2018-09-23T03:31:33.989Z,21.60
2018-09-23T03:34:01.429Z,21.58
2018-09-23T03:36:29.399Z,21.50
2018-09-23T03:38:57.145Z,21.44
2018-09-23T03:41:24.565Z,21.45
2018-09-23T03:43:52.417Z,21.50
2018-09-23T03:46:19.897Z,21.50
2018-09-23T03:48:47.332Z,21.53
2018-09-23T03:51:14.793Z,21.56
2018-09-23T03:53:42.466Z,21.56
2018-09-23T03:56:10.589Z,21.53
2018-09-23T03:58:38.084Z,21.51
2018-09-23T04:01:05.524Z,21.51
2018-09-23T04:03:33.561Z,21.58
2018-09-23T04:06:01.020Z,21.59
2018-09-23T04:08:28.470Z,21.55
2018-09-23T04:10:55.915Z,21.55
2018-09-23T04:13:23.347Z,21.55
2018-09-23T04:15:50.794Z,21.53
2018-09-23T04:18:18.323Z,21.52
2018-09-23T04:20:45.780Z,21.53
2018-09-23T04:23:13.176Z,21.56
2018-09-23T04:25:40.706Z,21.61
2018-09-23T04:28:08.185Z,21.67
2018-09-23T04:30:35.635Z,21.70
2018-09-23T04:33:03.074Z,21.68
2018-09-23T04:35:30.505Z,21.66
2018-09-23T04:37:58.589Z,21.64
2018-09-23T04:40:26.044Z,21.65
2018-09-23T04:42:53.489Z,21.60
2018-09-23T04:45:20.914Z,21.55
2018-09-23T04:47:48.388Z,21.56
2018-09-23T04:50:15.860Z,21.57
2018-09-23T04:52:43.308Z,21.54
2018-09-23T04:55:10.759Z,21.46
2018-09-23T04:57:38.144Z,21.49
2018-09-23T05:00:05.546Z,21.49
2018-09-23T05:02:33.012Z,21.48
2018-09-23T05:05:00.420Z,21.52
2018-09-23T05:07:27.870Z,21.48
2018-09-23T05:09:55.480Z,21.31
2018-09-23T05:12:22.906Z,21.33
2018-09-23T05:14:50.319Z,21.36
2018-09-23T05:17:17.753Z,21.45
2018-09-23T05:19:45.234Z,21.49
2018-09-23T05:22:12.641Z,21.51
2018-09-23T05:24:40.033Z,21.54
2018-09-23T05:27:07.491Z,21.59
2018-09-23T05:29:34.897Z,21.59
2018-09-23T05:32:02.379Z,21.57
2018-09-23T05:34:29.848Z,21.56
2018-09-23T05:36:57.282Z,21.52
2018-09-23T05:39:24.705Z,21.53
2018-09-23T05:41:52.135Z,21.57
2018-09-23T05:44:19.604Z,21.63
2018-09-23T05:46:47.035Z,21.64
2018-09-23T05:49:14.515Z,21.67
2018-09-23T05:51:42.079Z,21.71
2018-09-23T05:54:09.489Z,21.71
2018-09-23T05:56:37.017Z,21.69
2018-09-23T05:59:04.440Z,21.70
2018-09-23T06:01:31.878Z,21.77
2018-09-23T06:03:59.315Z,21.85
2018-09-23T06:06:27.212Z,21.84
2018-09-23T06:08:54.671Z,21.88
2018-09-23T06:11:22.089Z,21.94
2018-09-23T06:13:49.562Z,21.88
2018-09-23T06:16:16.996Z,21.91
2018-09-23T06:18:44.439Z,22.05
2018-09-23T06:21:11.825Z,22.18
2018-09-23T06:23:39.283Z,22.30
2018-09-23T06:26:06.715Z,22.41
2018-09-23T06:28:34.161Z,22.47
2018-09-23T06:31:01.589Z,22.60
2018-09-23T06:33:29.028Z,22.63
2018-09-23T06:35:56.566Z,22.65
2018-09-23T06:38:24.007Z,22.61
2018-09-23T06:40:51.470Z,22.41
2018-09-23T06:43:19.140Z,22.27
2018-09-23T06:45:46.665Z,22.30
2018-09-23T06:48:14.283Z,22.36
2018-09-23T06:50:41.746Z,22.36
2018-09-23T06:53:09.152Z,22.42
2018-09-23T06:55:36.619Z,22.48
2018-09-23T06:58:04.039Z,22.58
2018-09-23T07:00:31.558Z,22.66
2018-09-23T07:02:58.979Z,22.71
2018-09-23T07:05:26.437Z,22.75
2018-09-23T07:07:53.890Z,22.80
2018-09-23T07:10:21.402Z,22.88
2018-09-23T07:12:48.762Z,22.93
2018-09-23T07:15:16.204Z,22.89
2018-09-23T07:17:43.605Z,22.97
2018-09-23T07:20:11.151Z,23.00
2018-09-23T07:22:39.479Z,23.02
2018-09-23T07:25:06.972Z,23.10
2018-09-23T07:27:34.413Z,23.16
2018-09-23T07:30:01.990Z,23.23
2018-09-23T07:32:29.363Z,23.27
2018-09-23T07:34:56.802Z,23.23
2018-09-23T07:37:24.331Z,23.22
2018-09-23T07:39:51.834Z,23.14
2018-09-23T07:42:20.039Z,23.19
2018-09-23T07:44:47.513Z,23.19
2018-09-23T07:47:14.989Z,23.18
2018-09-23T07:49:42.935Z,23.15
2018-09-23T07:52:10.430Z,23.14
2018-09-23T07:54:37.867Z,23.16
2018-09-23T07:57:05.338Z,23.22
2018-09-23T07:59:32.778Z,23.30
2018-09-23T08:02:00.352Z,23.26
2018-09-23T08:04:27.839Z,23.23
2018-09-23T08:06:55.316Z,23.19
2018-09-23T08:09:22.837Z,23.14
2018-09-23T08:11:50.295Z,23.26
2018-09-23T08:14:17.985Z,23.46
2018-09-23T08:16:45.300Z,23.67
2018-09-23T08:19:12.829Z,23.81
2018-09-23T08:21:40.507Z,23.94
2018-09-23T08:24:07.974Z,24.00
2018-09-23T08:26:35.480Z,24.10
2018-09-23T08:29:02.958Z,24.19
2018-09-23T08:31:30.444Z,24.25
2018-09-23T08:33:57.893Z,24.38
2018-09-23T08:36:25.299Z,24.47
2018-09-23T08:38:52.752Z,24.55
2018-09-23T08:41:20.248Z,24.67
2018-09-23T08:43:47.698Z,24.75
2018-09-23T08:46:15.142Z,24.73
2018-09-23T08:48:42.628Z,24.71
2018-09-23T08:51:10.066Z,24.67
2018-09-23T08:53:37.506Z,24.64
2018-09-23T08:56:04.911Z,24.60
2018-09-23T08:58:32.465Z,24.52
2018-09-23T09:00:59.861Z,24.48
2018-09-23T09:03:27.277Z,24.60
2018-09-23T09:05:54.823Z,25.19
2018-09-23T09:08:22.241Z,25.31
2018-09-23T09:10:49.717Z,25.36
2018-09-23T09:13:17.195Z,25.35
2018-09-23T09:15:44.644Z,25.20
2018-09-23T09:18:12.191Z,25.17
2018-09-23T09:20:39.592Z,24.96
2018-09-23T09:23:07.101Z,24.88
2018-09-23T09:25:34.663Z,24.79
2018-09-23T09:28:02.249Z,24.86
2018-09-23T09:30:29.700Z,24.89
2018-09-23T09:32:57.127Z,24.92
2018-09-23T09:35:24.663Z,24.98
2018-09-23T09:37:52.104Z,25.04
2018-09-23T09:40:19.563Z,25.05
2018-09-23T09:42:47.681Z,25.19
2018-09-23T09:45:15.082Z,25.33
2018-09-23T09:47:42.561Z,25.28
2018-09-23T09:50:10.110Z,25.43
2018-09-23T09:52:37.546Z,25.50
2018-09-23T09:55:05.014Z,25.66
2018-09-23T09:57:32.480Z,25.78
2018-09-23T09:59:59.907Z,26.60
2018-09-23T10:02:27.395Z,27.39
2018-09-23T10:04:54.966Z,27.79
2018-09-23T10:07:22.448Z,27.75
2018-09-23T10:09:49.879Z,28.12
2018-09-23T10:12:16.838Z,28.26
2018-09-23T10:14:43.817Z,27.80
2018-09-23T10:17:10.856Z,27.48
2018-09-23T10:19:37.897Z,27.52
2018-09-23T10:22:04.919Z,27.66
2018-09-23T10:24:31.896Z,28.07
2018-09-23T10:26:59.327Z,28.17
2018-09-23T10:29:26.280Z,28.17
2018-09-23T10:31:53.328Z,28.30
2018-09-23T10:34:20.303Z,28.03
2018-09-23T10:36:47.440Z,28.43
2018-09-23T10:39:14.505Z,28.69
2018-09-23T10:41:42.070Z,28.34
2018-09-23T10:44:09.576Z,27.82
2018-09-23T10:46:37.170Z,27.38
2018-09-23T10:49:04.616Z,28.02
2018-09-23T10:51:32.063Z,28.59
2018-09-23T10:53:59.281Z,28.94
2018-09-23T10:56:26.372Z,29.13
2018-09-23T10:58:53.350Z,29.47
2018-09-23T11:01:20.388Z,29.57
2018-09-23T11:03:47.479Z,29.69
2018-09-23T11:06:14.424Z,29.72
2018-09-23T11:08:41.480Z,29.72
2018-09-23T11:11:08.980Z,29.79
2018-09-23T11:13:36.408Z,29.98
2018-09-23T11:16:03.853Z,30.03
2018-09-23T11:18:31.518Z,30.18
2018-09-23T11:20:58.984Z,30.63
2018-09-23T11:23:26.592Z,31.02
2018-09-23T11:25:54.034Z,30.87
2018-09-23T11:28:21.537Z,30.80
2018-09-23T11:30:49.162Z,30.78
2018-09-23T11:33:16.636Z,31.00
2018-09-23T11:35:44.097Z,30.89
2018-09-23T11:38:11.573Z,31.04
2018-09-23T11:40:39.212Z,31.30
2018-09-23T11:43:06.680Z,31.56
2018-09-23T11:45:34.143Z,31.67
2018-09-23T11:48:01.628Z,31.52
2018-09-23T11:50:29.051Z,31.80
2018-09-23T11:52:56.512Z,31.73
2018-09-23T11:55:24.581Z,31.81
2018-09-23T11:57:51.974Z,31.92
2018-09-23T12:00:20.083Z,31.69
2018-09-23T12:02:49.338Z,31.74
2018-09-23T12:05:16.780Z,31.82
2018-09-23T12:07:44.254Z,31.33
2018-09-23T12:10:11.787Z,31.53
2018-09-23T12:12:39.235Z,31.12
2018-09-23T12:15:06.688Z,30.78
2018-09-23T12:17:34.302Z,30.12
2018-09-23T12:20:01.702Z,29.97
2018-09-23T12:22:29.288Z,29.87
2018-09-23T12:24:56.842Z,30.22
2018-09-23T12:27:24.297Z,31.05
2018-09-23T12:29:51.678Z,31.40
2018-09-23T12:32:19.131Z,31.77
2018-09-23T12:34:46.556Z,32.00
2018-09-23T12:37:14.959Z,32.34
2018-09-23T12:39:42.483Z,32.21
2018-09-23T12:42:09.924Z,32.01
2018-09-23T12:44:37.369Z,32.21
2018-09-23T12:47:04.864Z,32.19
2018-09-23T12:49:32.341Z,32.55
2018-09-23T12:51:59.775Z,32.31
2018-09-23T12:54:27.207Z,32.51
2018-09-23T12:56:54.621Z,32.54
2018-09-23T12:59:22.168Z,32.55
2018-09-23T13:01:49.750Z,32.86
2018-09-23T13:04:16.811Z,33.10
2018-09-23T13:06:44.046Z,33.53
2018-09-23T13:09:11.043Z,33.26
2018-09-23T13:11:38.031Z,32.50
2018-09-23T13:14:05.529Z,32.72
2018-09-23T13:16:32.988Z,32.98
2018-09-23T13:19:00.400Z,32.60
2018-09-23T13:21:27.824Z,32.11
2018-09-23T13:23:55.256Z,31.96
2018-09-23T13:26:22.798Z,32.23
2018-09-23T13:28:50.229Z,32.94
2018-09-23T13:31:17.691Z,33.35
2018-09-23T13:33:45.134Z,33.36
2018-09-23T13:36:12.584Z,33.31
2018-09-23T13:38:40.118Z,33.31
2018-09-23T13:41:07.578Z,32.68
2018-09-23T13:43:35.030Z,32.25
2018-09-23T13:46:02.564Z,32.60
2018-09-23T13:48:30.012Z,32.62
2018-09-23T13:50:57.478Z,32.21
2018-09-23T13:53:25.694Z,32.63
2018-09-23T13:55:53.315Z,32.70
2018-09-23T13:58:20.931Z,32.67
2018-09-23T14:00:48.698Z,32.33
2018-09-23T14:03:16.230Z,31.73
2018-09-23T14:05:43.742Z,32.06
2018-09-23T14:08:11.702Z,31.58
2018-09-23T14:10:39.179Z,31.10
2018-09-23T14:13:07.143Z,30.87
2018-09-23T14:15:34.589Z,30.82
2018-09-23T14:18:02.041Z,30.76
2018-09-23T14:20:29.475Z,30.61
2018-09-23T14:22:56.957Z,30.61
2018-09-23T14:25:24.795Z,30.79
2018-09-23T14:27:52.329Z,30.94
2018-09-23T14:30:19.785Z,31.56
2018-09-23T14:32:48.001Z,32.14
2018-09-23T14:35:15.466Z,32.64
2018-09-23T14:37:44.046Z,32.95
2018-09-23T14:40:11.760Z,33.08
2018-09-23T14:42:39.183Z,33.05
2018-09-23T14:45:06.632Z,32.59
2018-09-23T14:47:34.092Z,32.02
2018-09-23T14:50:01.575Z,31.60
2018-09-23T14:52:28.981Z,31.34
2018-09-23T14:54:56.554Z,31.04
2018-09-23T14:57:23.877Z,30.97
2018-09-23T14:59:54.364Z,31.44
2018-09-23T15:02:18.866Z,31.81
2018-09-23T15:04:46.350Z,32.11
2018-09-23T15:07:13.883Z,32.26
2018-09-23T15:09:41.312Z,32.03
2018-09-23T15:12:08.746Z,31.61
2018-09-23T15:14:36.316Z,31.26
2018-09-23T15:17:03.756Z,31.13
2018-09-23T15:19:31.197Z,30.95
2018-09-23T15:21:58.661Z,30.89
2018-09-23T15:24:26.085Z,30.77
2018-09-23T15:26:53.558Z,30.54
2018-09-23T15:29:21.435Z,30.35
2018-09-23T15:31:48.881Z,30.12
2018-09-23T15:34:16.405Z,29.92
2018-09-23T15:36:43.902Z,29.85
2018-09-23T15:39:11.328Z,29.80
2018-09-23T15:41:38.762Z,29.69
2018-09-23T15:44:06.216Z,29.77
2018-09-23T15:46:33.628Z,29.89
2018-09-23T15:49:01.133Z,29.98
2018-09-23T15:51:28.597Z,30.15
2018-09-23T15:53:56.028Z,29.91
2018-09-23T15:56:23.483Z,29.59
2018-09-23T15:58:50.950Z,29.48
2018-09-23T16:01:18.436Z,29.39
2018-09-23T16:03:46.570Z,29.46
2018-09-23T16:06:14.046Z,29.83
2018-09-23T16:08:41.494Z,29.67
2018-09-23T16:11:08.956Z,29.58
2018-09-23T16:13:36.394Z,29.49
2018-09-23T16:16:03.902Z,29.29
2018-09-23T16:18:31.554Z,29.18
2018-09-23T16:20:58.905Z,29.03
2018-09-23T16:23:26.375Z,29.06
2018-09-23T16:25:54.066Z,29.01
2018-09-23T16:28:21.480Z,29.00
2018-09-23T16:30:48.931Z,28.98
2018-09-23T16:33:16.380Z,28.91
2018-09-23T16:35:43.907Z,28.89
2018-09-23T16:38:11.357Z,28.80
2018-09-23T16:40:38.808Z,28.70
2018-09-23T16:43:06.284Z,28.54
2018-09-23T16:45:33.977Z,28.48
2018-09-23T16:48:01.415Z,28.40
2018-09-23T16:50:28.890Z,28.33
2018-09-23T16:52:56.383Z,28.29
2018-09-23T16:55:23.909Z,28.24
2018-09-23T16:57:51.416Z,28.19
2018-09-23T17:00:18.873Z,28.15
2018-09-23T17:02:46.410Z,28.12
2018-09-23T17:05:13.897Z,28.10
2018-09-23T17:07:41.330Z,28.05
2018-09-23T17:10:08.776Z,28.07
2018-09-23T17:12:36.174Z,28.00
2018-09-23T17:15:03.157Z,27.98
2018-09-23T17:17:30.626Z,27.93
2018-09-23T17:19:58.058Z,27.91
2018-09-23T17:22:25.489Z,27.85
2018-09-23T17:24:52.927Z,27.79
2018-09-23T17:27:20.391Z,27.76
2018-09-23T17:29:47.897Z,27.70
2018-09-23T17:32:15.358Z,27.65
2018-09-23T17:34:42.464Z,27.57
2018-09-23T17:37:09.438Z,27.42
2018-09-23T17:39:36.492Z,27.28
2018-09-23T17:42:03.908Z,27.10
2018-09-23T17:44:31.398Z,26.90
2018-09-23T17:46:59.040Z,26.78
2018-09-23T17:49:26.499Z,26.69
2018-09-23T17:51:54.404Z,26.55
2018-09-23T17:54:21.888Z,26.41
2018-09-23T17:56:48.878Z,26.31
2018-09-23T17:59:15.952Z,26.22
2018-09-23T18:01:43.459Z,26.10
2018-09-23T18:04:10.924Z,25.95
2018-09-23T18:06:38.031Z,25.84
2018-09-23T18:09:05.426Z,25.77
2018-09-23T18:11:32.940Z,25.74
2018-09-23T18:13:59.865Z,25.73
2018-09-23T18:16:26.852Z,25.71
2018-09-23T18:18:54.300Z,25.70
2018-09-23T18:21:21.728Z,25.69
2018-09-23T18:23:49.302Z,25.69
2018-09-23T18:26:16.297Z,25.62
2018-09-23T18:28:43.262Z,25.61
2018-09-23T18:31:10.255Z,25.61
2018-09-23T18:33:37.243Z,25.60
2018-09-23T18:36:04.190Z,25.62
2018-09-23T18:38:31.198Z,25.64
2018-09-23T18:40:58.161Z,25.61
2018-09-23T18:43:25.134Z,25.60
2018-09-23T18:45:52.107Z,25.61
2018-09-23T18:48:19.039Z,25.63
2018-09-23T18:50:46.107Z,25.64
2018-09-23T18:53:13.061Z,25.65
2018-09-23T18:55:40.011Z,25.60
2018-09-23T18:58:07.018Z,25.56
2018-09-23T19:00:34.012Z,25.52
2018-09-23T19:03:00.989Z,25.52
2018-09-23T19:05:27.952Z,25.55
2018-09-23T19:07:54.947Z,25.53
2018-09-23T19:10:21.939Z,25.53
2018-09-23T19:12:48.935Z,25.47
2018-09-23T19:15:15.927Z,25.45
2018-09-23T19:17:43.330Z,25.45
2018-09-23T19:20:10.731Z,25.49
2018-09-23T19:22:38.160Z,25.50
2018-09-23T19:25:05.599Z,25.48
2018-09-23T19:27:33.057Z,25.49
2018-09-23T19:30:00.543Z,25.53
2018-09-23T19:32:28.050Z,25.53
2018-09-23T19:34:55.470Z,25.49
2018-09-23T19:37:22.936Z,25.41
2018-09-23T19:39:50.338Z,25.38
2018-09-23T19:42:17.802Z,25.35
2018-09-23T19:44:45.239Z,25.36
2018-09-23T19:47:12.712Z,25.35
2018-09-23T19:49:40.157Z,25.26
2018-09-23T19:52:07.627Z,25.27
2018-09-23T19:54:35.128Z,25.25
2018-09-23T19:57:02.556Z,25.24
2018-09-23T19:59:30.032Z,25.21
2018-09-23T20:01:57.516Z,25.27
2018-09-23T20:04:24.985Z,25.28
2018-09-23T20:06:52.720Z,25.24
2018-09-23T20:09:20.140Z,25.22
2018-09-23T20:11:47.823Z,25.19
2018-09-23T20:14:15.230Z,25.18
2018-09-23T20:16:42.628Z,25.16
2018-09-23T20:19:10.109Z,25.16
2018-09-23T20:21:38.212Z,25.15
2018-09-23T20:24:05.675Z,25.18
2018-09-23T20:26:33.700Z,25.12
2018-09-23T20:29:01.127Z,25.13
2018-09-23T20:31:28.520Z,25.10
2018-09-23T20:33:56.044Z,25.06
2018-09-23T20:36:23.468Z,25.08
2018-09-23T20:38:51.076Z,25.08
2018-09-23T20:41:18.503Z,25.06
2018-09-23T20:43:45.996Z,25.00
2018-09-23T20:46:13.401Z,25.07
2018-09-23T20:48:40.825Z,24.86
2018-09-23T20:51:08.282Z,23.79
2018-09-23T20:53:35.924Z,22.68
2018-09-23T20:56:03.361Z,21.78
2018-09-23T20:58:30.777Z,21.10
2018-09-23T21:00:58.206Z,20.88
2018-09-23T21:03:25.694Z,20.70
2018-09-23T21:05:53.167Z,20.64
2018-09-23T21:08:20.597Z,20.62
2018-09-23T21:10:48.104Z,20.66
2018-09-23T21:13:15.545Z,20.58
2018-09-23T21:15:42.997Z,20.35
2018-09-23T21:18:10.399Z,20.12
2018-09-23T21:20:37.848Z,20.04
2018-09-23T21:23:05.272Z,19.93
2018-09-23T21:25:32.751Z,19.85
2018-09-23T21:28:00.183Z,19.82
2018-09-23T21:30:27.615Z,19.65
2018-09-23T21:32:55.038Z,19.43
2018-09-23T21:35:22.510Z,19.33
2018-09-23T21:37:50.001Z,19.26
2018-09-23T21:40:17.477Z,19.27
2018-09-23T21:42:44.923Z,19.12
2018-09-23T21:45:12.323Z,19.18
2018-09-23T21:47:39.740Z,19.16
2018-09-23T21:50:07.142Z,19.14
2018-09-23T21:52:34.585Z,19.05
2018-09-23T21:55:02.007Z,18.88
2018-09-23T21:57:29.406Z,18.71
2018-09-23T21:59:56.840Z,18.52
2018-09-23T22:02:24.249Z,18.51
2018-09-23T22:04:51.663Z,18.55
2018-09-23T22:07:19.114Z,18.56
2018-09-23T22:09:46.580Z,18.50
2018-09-23T22:12:14.034Z,18.53
2018-09-23T22:14:41.430Z,18.61
2018-09-23T22:17:08.844Z,18.54
2018-09-23T22:19:36.322Z,18.45
2018-09-23T22:22:03.731Z,18.40
2018-09-23T22:24:31.156Z,18.42
2018-09-23T22:26:58.591Z,18.43
2018-09-23T22:29:26.034Z,18.41
2018-09-23T22:31:53.499Z,18.40
2018-09-23T22:34:20.899Z,18.38
2018-09-23T22:36:48.308Z,18.26
2018-09-23T22:39:15.765Z,18.20
2018-09-23T22:41:43.186Z,18.10
2018-09-23T22:44:10.639Z,17.97
2018-09-23T22:46:38.073Z,17.93
2018-09-23T22:49:05.556Z,18.03
2018-09-23T22:51:33.001Z,18.15
2018-09-23T22:54:00.472Z,18.20
2018-09-23T22:56:27.904Z,18.06
2018-09-23T22:58:55.461Z,17.80
2018-09-23T23:01:22.846Z,17.81
2018-09-23T23:03:50.287Z,17.82
2018-09-23T23:06:17.690Z,17.78
2018-09-23T23:08:45.203Z,17.73
2018-09-23T23:11:12.678Z,17.73
2018-09-23T23:13:40.103Z,17.69
2018-09-23T23:16:07.494Z,17.56
2018-09-23T23:18:34.931Z,17.35
2018-09-23T23:21:02.355Z,17.14
2018-09-23T23:23:29.753Z,17.07
2018-09-23T23:25:57.184Z,17.10
2018-09-23T23:28:24.616Z,17.05
2018-09-23T23:30:52.041Z,17.06
2018-09-23T23:33:19.530Z,17.21
2018-09-23T23:35:47.028Z,17.27
2018-09-23T23:38:14.486Z,17.25
2018-09-23T23:40:41.922Z,17.24
2018-09-23T23:43:09.543Z,17.31
2018-09-23T23:45:36.992Z,17.36
2018-09-23T23:48:04.445Z,17.41
2018-09-23T23:50:31.884Z,17.46
2018-09-23T23:52:59.339Z,17.43
2018-09-23T23:55:26.745Z,17.42
2018-09-23T23:57:54.183Z,17.41
